createdAt,value
2023-08-07T00:00:01.709Z,1000.9375649282771
2023-08-07T00:15:02.300Z,1000.8732079210522
2023-08-07T00:30:01.999Z,1000.8812524528522
2023-08-07T00:45:01.685Z,1000.9475547144382
2023-08-07T01:00:02.393Z,1000.9011048255851
2023-08-07T01:15:02.041Z,1000.9581049279316
2023-08-07T01:30:01.844Z,1000.8875044826252
2023-08-07T01:45:01.594Z,1000.8887672704572
2023-08-07T02:00:02.256Z,1000.8367824022993
2023-08-07T02:15:01.876Z,1000.8374200459735
2023-08-07T02:30:02.561Z,1000.895322253155
2023-08-07T02:45:02.181Z,1000.907392840001
2023-08-07T03:00:01.912Z,1000.8965601812309
2023-08-07T03:15:01.630Z,1000.7724597953202
2023-08-07T03:30:02.344Z,1000.8256888471916
2023-08-07T03:45:01.985Z,1000.910464944674
2023-08-07T04:00:01.641Z,1001.0354576186693
2023-08-07T04:15:02.288Z,1001.0060548218576
2023-08-07T04:30:02.552Z,1001.0351277108789
2023-08-07T04:45:02.228Z,1001.1322594066686
2023-08-07T05:00:01.854Z,1001.2266486719377
2023-08-07T05:15:02.511Z,1001.4407503594956
2023-08-07T05:30:02.195Z,1001.444383386137
2023-08-07T05:45:01.931Z,1001.4673179473023
2023-08-07T06:00:01.620Z,1001.6035621894854
2023-08-07T06:15:02.256Z,1001.7153024305073
2023-08-07T06:30:01.941Z,1001.9261609443746
2023-08-07T06:45:01.647Z,1001.8732842703241
2023-08-07T07:00:02.334Z,1002.0705031729356
2023-08-07T07:15:01.924Z,1002.1269408374723
2023-08-07T07:30:01.602Z,1002.2131086475421
2023-08-07T07:45:02.237Z,1002.4163304707388
2023-08-07T08:00:01.891Z,1002.5977396112346
2023-08-07T08:15:02.558Z,1002.6777566260255
2023-08-07T08:30:02.307Z,1002.7682367070194
2023-08-07T08:45:01.952Z,1003.0551165048965
2023-08-07T09:00:01.650Z,1003.1430216518743
2023-08-07T09:15:02.305Z,1003.2023824045758
2023-08-07T09:30:01.986Z,1003.3354032740773
2023-08-07T09:45:01.735Z,1003.5626055354473
2023-08-07T10:00:02.542Z,1003.7407975208673
2023-08-07T10:15:02.446Z,1003.9572912948087
2023-08-07T10:30:02.124Z,1004.1040876995177
2023-08-07T10:45:01.814Z,1004.7923745072454
2023-08-07T11:00:02.495Z,1004.7106925374031
2023-08-07T11:15:02.162Z,1004.6096187814571
2023-08-07T11:30:01.852Z,1004.5676493356302
2023-08-07T11:45:02.512Z,1004.5999231341548
2023-08-07T12:00:02.152Z,1004.5890284463966
2023-08-07T12:15:01.829Z,1004.9303166821463
2023-08-07T12:30:02.507Z,1004.834528979609
2023-08-07T12:45:02.174Z,1005.224842208803
2023-08-07T13:00:01.801Z,1005.2235365349432
2023-08-07T13:15:02.497Z,1005.6375652758885
2023-08-07T13:30:02.197Z,1005.626503527386
2023-08-07T13:45:01.867Z,1005.5868928001761
2023-08-07T14:00:02.494Z,1005.5683661131405
2023-08-07T14:15:02.143Z,1005.5629616698702
2023-08-07T14:30:01.757Z,1005.8434332528599
2023-08-07T14:45:02.443Z,1005.917066386769
2023-08-07T15:00:02.122Z,1006.7427066409354
2023-08-07T15:15:01.815Z,1007.0631525347129
2023-08-07T15:30:02.446Z,1006.9757906213969
2023-08-07T15:45:02.167Z,1006.6749613822536
2023-08-07T16:00:01.787Z,1006.6882665843775
2023-08-07T16:15:02.436Z,1006.710888765705
2023-08-07T16:30:02.081Z,1006.8823761142041
2023-08-07T16:45:01.746Z,1006.8173408316434
2023-08-07T17:00:02.328Z,1006.7793145840603
2023-08-07T17:15:01.971Z,1006.7856393876982
2023-08-07T17:30:01.714Z,1006.8082613468257
2023-08-07T17:45:02.320Z,1006.7206820396718
2023-08-07T18:00:01.922Z,1006.6993954087843
2023-08-07T18:15:01.620Z,1006.6171938952035
2023-08-07T18:30:02.266Z,1006.5871068650308
2023-08-07T18:45:01.944Z,1006.537381139545
2023-08-07T19:00:01.610Z,1006.4967196736004
2023-08-07T19:15:02.289Z,1006.4728422821225
2023-08-07T19:30:01.970Z,1006.6055498657354
2023-08-07T19:45:01.647Z,1006.5396198139057
2023-08-07T20:00:02.300Z,1006.4172084122697
2023-08-07T20:15:01.925Z,1006.455103144999
2023-08-07T20:30:01.721Z,1006.475492334143
2023-08-07T20:45:02.392Z,1006.4393321608534
2023-08-07T21:00:02.038Z,1006.2350260882081
2023-08-07T21:15:01.676Z,1006.2247562862821
2023-08-07T21:30:02.353Z,1006.2187438554446
2023-08-07T21:45:02.071Z,1006.1126673408819
2023-08-07T22:00:01.748Z,1005.9834184203698
2023-08-07T22:15:02.440Z,1005.9252005158052
2023-08-07T22:30:02.084Z,1005.8898214971788
2023-08-07T22:45:01.743Z,1005.8933664751464
2023-08-07T23:00:02.428Z,1005.7662655033074
2023-08-07T23:15:02.084Z,1005.6332231282681
2023-08-07T23:30:01.768Z,1005.5945874347797
2023-08-07T23:45:02.453Z,1005.4089115591502
